createdAt,value
2022-12-22T00:04:40.272Z,97836.66
2022-12-22T00:09:50.744Z,97838.16
2022-12-22T00:15:02.722Z,97831.00
2022-12-22T00:20:18.358Z,97831.94
2022-12-22T00:25:32.785Z,97827.00
2022-12-22T00:30:43.876Z,97822.94
2022-12-22T00:35:54.072Z,97833.06
2022-12-22T00:41:04.519Z,97831.47
2022-12-22T00:46:15.410Z,97823.63
2022-12-22T00:51:26.684Z,97823.63
2022-12-22T00:56:37.384Z,97814.25
2022-12-22T01:01:48.086Z,97815.09
2022-12-22T01:06:58.397Z,97821.53
2022-12-22T01:12:08.610Z,97810.78
2022-12-22T01:17:19.329Z,97801.06
2022-12-22T01:22:31.466Z,97805.41
2022-12-22T01:27:42.099Z,97811.72
2022-12-22T01:32:52.273Z,97818.88
2022-12-22T01:38:02.723Z,97813.16
2022-12-22T01:43:13.103Z,97811.41
2022-12-22T01:48:23.639Z,97813.16
2022-12-22T01:53:41.622Z,97813.09
2022-12-22T01:58:56.092Z,97812.97
2022-12-22T02:04:06.409Z,97814.97
2022-12-22T02:09:34.611Z,97815.91
2022-12-22T02:14:56.301Z,97818.13
2022-12-22T02:20:15.652Z,97823.50
2022-12-22T02:25:36.270Z,97827.25
2022-12-22T02:30:47.208Z,97831.81
2022-12-22T02:36:07.287Z,97823.38
2022-12-22T02:41:23.360Z,97834.00
2022-12-22T02:46:39.366Z,97825.00
2022-12-22T02:51:54.845Z,97821.94
2022-12-22T02:57:05.184Z,97827.22
2022-12-22T03:02:16.104Z,97821.13
2022-12-22T03:07:26.843Z,97815.63
2022-12-22T03:12:36.888Z,97828.31
2022-12-22T03:17:47.287Z,97819.56
2022-12-22T03:22:57.850Z,97795.84
2022-12-22T03:27:49.530Z,97807.03
2022-12-22T03:32:41.279Z,97816.16
2022-12-22T03:37:32.960Z,97814.97
2022-12-22T03:42:43.531Z,97826.16
2022-12-22T03:47:35.208Z,97823.00
2022-12-22T03:52:26.873Z,97831.34
2022-12-22T03:57:18.481Z,97838.47
2022-12-22T04:02:10.330Z,97840.09
2022-12-22T04:07:02.104Z,97843.84
2022-12-22T04:12:12.278Z,97850.59
2022-12-22T04:17:05.668Z,97854.72
2022-12-22T04:21:57.699Z,97852.75
2022-12-22T04:26:50.385Z,97848.34
2022-12-22T04:31:42.175Z,97829.47
2022-12-22T04:36:33.888Z,97817.78
2022-12-22T04:41:26.795Z,97801.34
2022-12-22T04:46:18.509Z,97804.13
2022-12-22T04:51:10.404Z,97802.66
2022-12-22T04:56:05.501Z,97803.44
2022-12-22T05:00:57.563Z,97808.25
2022-12-22T05:05:49.343Z,97834.66
2022-12-22T05:10:41.231Z,97826.72
2022-12-22T05:15:36.047Z,97825.22
2022-12-22T05:20:28.782Z,97832.22
2022-12-22T05:25:21.333Z,97836.56
2022-12-22T05:30:14.213Z,97824.75
2022-12-22T05:35:06.892Z,97815.16
2022-12-22T05:39:58.452Z,97828.97
2022-12-22T05:44:50.137Z,97831.66
2022-12-22T05:49:41.834Z,97824.06
2022-12-22T05:54:33.422Z,97832.59
2022-12-22T05:59:25.114Z,97822.66
2022-12-22T06:04:16.822Z,97815.63
2022-12-22T06:09:08.494Z,97818.69
2022-12-22T06:14:00.134Z,97816.81
2022-12-22T06:18:51.839Z,97811.09
2022-12-22T06:23:43.589Z,97803.72
2022-12-22T06:28:35.272Z,97793.06
2022-12-22T06:33:27.051Z,97794.81
2022-12-22T06:38:18.626Z,97788.25
2022-12-22T06:43:10.742Z,97782.53
2022-12-22T06:48:03.010Z,97784.88
2022-12-22T06:52:54.747Z,97804.94
2022-12-22T06:57:46.433Z,97812.41
2022-12-22T07:02:38.279Z,97823.16
2022-12-22T07:07:30.058Z,97825.16
2022-12-22T07:12:22.642Z,97820.94
2022-12-22T07:17:14.311Z,97805.22
2022-12-22T07:22:05.971Z,97812.34
2022-12-22T07:26:57.665Z,97814.09
2022-12-22T07:31:49.455Z,97806.88
2022-12-22T07:36:41.145Z,97797.50
2022-12-22T07:41:51.558Z,97798.91
2022-12-22T07:46:43.266Z,97798.91
2022-12-22T07:51:37.358Z,97804.28
2022-12-22T07:56:29.014Z,97790.97
2022-12-22T08:01:20.586Z,97789.31
2022-12-22T08:06:12.505Z,97784.63
2022-12-22T08:11:05.080Z,97783.03
2022-12-22T08:16:02.144Z,97776.00
2022-12-22T08:20:53.751Z,97771.31
2022-12-22T08:25:48.076Z,97776.56
2022-12-22T08:30:39.766Z,97770.00
2022-12-22T08:35:31.492Z,97770.47
2022-12-22T08:40:26.580Z,97771.50
2022-12-22T08:45:18.574Z,97771.97
2022-12-22T08:50:10.690Z,97771.75
2022-12-22T08:55:02.273Z,97767.19
2022-12-22T08:59:53.962Z,97769.44
2022-12-22T09:04:45.628Z,97773.28
2022-12-22T09:09:37.340Z,97773.44
2022-12-22T09:14:29.500Z,97771.66
2022-12-22T09:19:21.493Z,97769.34
2022-12-22T09:24:13.159Z,97768.66
2022-12-22T09:29:05.092Z,97770.84
2022-12-22T09:33:57.639Z,97771.22
2022-12-22T09:38:49.773Z,97764.09
2022-12-22T09:43:41.883Z,97750.78
2022-12-22T09:48:37.838Z,97742.59
2022-12-22T09:53:29.537Z,97736.50
2022-12-22T09:58:29.745Z,97745.16
2022-12-22T10:03:21.968Z,97738.25
2022-12-22T10:08:17.006Z,97740.13
2022-12-22T10:13:17.016Z,97742.81
2022-12-22T10:18:21.339Z,97741.19
2022-12-22T10:23:24.516Z,97751.94
2022-12-22T10:28:22.901Z,97755.44
2022-12-22T10:33:17.612Z,97750.66
2022-12-22T10:38:26.264Z,97751.47
2022-12-22T10:43:28.174Z,97756.38
2022-12-22T10:48:29.003Z,97755.56
2022-12-22T10:53:20.663Z,97762.34
2022-12-22T10:58:21.902Z,97756.72
2022-12-22T11:03:24.123Z,97737.19
2022-12-22T11:08:21.125Z,97732.50
2022-12-22T11:13:35.716Z,97722.94
2022-12-22T11:19:07.647Z,97726.19
2022-12-22T11:24:24.170Z,97712.59
2022-12-22T11:29:27.783Z,97722.69
2022-12-22T11:34:37.909Z,97705.94
2022-12-22T11:40:10.653Z,97699.44
2022-12-22T11:45:22.788Z,97698.72
2022-12-22T11:50:58.491Z,97694.84
2022-12-22T11:56:01.209Z,97691.50
2022-12-22T12:01:26.368Z,97686.00
2022-12-22T12:06:28.843Z,97684.19
2022-12-22T12:11:35.781Z,97677.28
2022-12-22T12:16:42.804Z,97666.75
2022-12-22T12:21:56.628Z,97665.44
2022-12-22T12:26:52.823Z,97659.34
2022-12-22T12:32:12.393Z,97654.25
2022-12-22T12:37:47.230Z,97657.63
2022-12-22T12:42:45.567Z,97662.03
2022-12-22T12:47:37.381Z,97671.75
2022-12-22T12:52:41.075Z,97662.34
2022-12-22T12:57:53.183Z,97672.16
2022-12-22T13:02:57.749Z,97661.38
2022-12-22T13:08:17.494Z,97657.38
2022-12-22T13:13:34.924Z,97655.81
2022-12-22T13:18:29.440Z,97642.09
2022-12-22T13:23:21.928Z,97635.41
2022-12-22T13:28:19.304Z,97640.88
2022-12-22T13:33:16.048Z,97640.72
2022-12-22T13:38:32.135Z,97641.09
2022-12-22T13:43:24.764Z,97638.78
2022-12-22T13:48:21.171Z,97644.25
2022-12-22T13:53:49.486Z,97645.47
2022-12-22T13:58:37.013Z,97645.56
2022-12-22T14:03:58.340Z,97641.84
2022-12-22T14:08:40.369Z,97645.91
2022-12-22T14:13:32.920Z,97647.38
2022-12-22T14:18:26.464Z,97640.16
2022-12-22T14:23:38.383Z,97632.94
2022-12-22T14:28:40.123Z,97643.75
2022-12-22T14:33:33.927Z,97650.25
2022-12-22T14:38:26.751Z,97654.84
2022-12-22T14:43:18.520Z,97656.50
2022-12-22T14:48:17.069Z,97664.09
2022-12-22T14:53:13.241Z,97667.91
2022-12-22T14:58:13.563Z,97665.03
2022-12-22T15:03:37.964Z,97667.22
2022-12-22T15:08:41.231Z,97670.97
2022-12-22T15:13:32.844Z,97677.19
2022-12-22T15:18:27.176Z,97679.06
2022-12-22T15:23:18.971Z,97681.78
2022-12-22T15:28:10.770Z,97683.22
2022-12-22T15:33:02.843Z,97685.66
2022-12-22T15:37:55.246Z,97694.91
2022-12-22T15:42:47.644Z,97700.59
2022-12-22T15:47:41.421Z,97703.59
2022-12-22T15:52:33.179Z,97718.25
2022-12-22T15:57:25.092Z,97711.28
2022-12-22T16:02:16.885Z,97717.50
2022-12-22T16:07:12.517Z,97728.03
2022-12-22T16:12:12.751Z,97732.13
2022-12-22T16:17:04.430Z,97751.31
2022-12-22T16:21:56.162Z,97747.25
2022-12-22T16:26:47.882Z,97748.34
2022-12-22T16:31:39.584Z,97756.19
2022-12-22T16:36:31.316Z,97783.75
2022-12-22T16:41:25.019Z,97772.97
2022-12-22T16:46:21.519Z,97788.38
2022-12-22T16:51:21.745Z,97793.19
2022-12-22T16:56:20.632Z,97799.34
2022-12-22T17:01:41.430Z,97809.03
2022-12-22T17:06:34.152Z,97802.47
2022-12-22T17:11:29.399Z,97818.13
2022-12-22T17:16:23.323Z,97808.88
2022-12-22T17:21:18.671Z,97809.94
2022-12-22T17:26:14.043Z,97813.97
2022-12-22T17:31:06.230Z,97813.38
2022-12-22T17:36:00.178Z,97832.78
2022-12-22T17:40:52.116Z,97844.06
2022-12-22T17:45:46.018Z,97848.66
2022-12-22T17:50:38.704Z,97843.75
2022-12-22T18:00:42.849Z,97860.38
2022-12-22T18:05:42.197Z,97860.78
2022-12-22T18:10:41.955Z,97876.66
2022-12-22T18:15:33.622Z,97894.16
2022-12-22T18:20:27.596Z,97900.63
2022-12-22T18:25:22.103Z,97900.53
2022-12-22T18:30:19.927Z,97916.63
2022-12-22T18:35:11.587Z,97920.31
2022-12-22T18:40:04.500Z,97915.16
2022-12-22T18:44:56.128Z,97919.97
2022-12-22T18:49:47.887Z,97914.59
2022-12-22T18:54:40.119Z,97921.84
2022-12-22T18:59:32.941Z,97920.09
2022-12-22T19:04:24.588Z,97929.28
2022-12-22T19:09:16.352Z,97940.56
2022-12-22T19:14:22.117Z,97944.22
2022-12-22T19:19:20.983Z,97948.22
2022-12-22T19:24:12.751Z,97964.38
2022-12-22T19:29:04.974Z,97971.06
2022-12-22T19:33:59.327Z,97983.19
2022-12-22T19:38:52.906Z,97979.06
2022-12-22T19:43:46.544Z,97982.81
2022-12-22T19:48:38.255Z,97985.75
2022-12-22T19:53:29.903Z,97985.41
2022-12-22T19:58:30.457Z,97999.72
2022-12-22T20:03:26.489Z,97994.78
2022-12-22T20:08:18.427Z,98002.31
2022-12-22T20:13:19.048Z,98005.00
2022-12-22T20:18:22.743Z,97995.50
2022-12-22T20:23:18.954Z,97993.28
2022-12-22T20:28:19.905Z,98001.84
2022-12-22T20:33:12.306Z,97992.16
2022-12-22T20:38:15.826Z,98004.69
2022-12-22T20:43:12.976Z,98004.69
2022-12-22T20:48:04.875Z,97992.03
2022-12-22T20:52:57.337Z,97997.88
2022-12-22T20:57:49.941Z,98004.34
2022-12-22T21:02:41.683Z,98009.75
2022-12-22T21:07:33.471Z,98007.06
2022-12-22T21:12:25.129Z,98009.16
2022-12-22T21:17:18.172Z,98008.91
2022-12-22T21:22:11.546Z,98018.88
2022-12-22T21:27:03.972Z,98020.41
2022-12-22T21:31:55.740Z,98023.00
2022-12-22T21:36:50.703Z,98018.88
2022-12-22T21:42:00.872Z,98035.41
2022-12-22T21:46:52.971Z,98048.28
2022-12-22T21:51:44.752Z,98053.91
2022-12-22T21:56:36.382Z,98055.34
2022-12-22T22:01:28.083Z,98062.13
2022-12-22T22:06:19.776Z,98072.91
2022-12-22T22:11:20.050Z,98059.69
2022-12-22T22:16:11.828Z,98057.56
2022-12-22T22:21:03.785Z,98063.53
2022-12-22T22:25:59.240Z,98070.09
2022-12-22T22:30:51.018Z,98073.13
2022-12-22T22:35:42.649Z,98079.94
2022-12-22T22:40:34.321Z,98077.72
2022-12-22T22:45:26.022Z,98071.28
2022-12-22T22:50:19.078Z,98085.09
2022-12-22T22:55:12.705Z,98081.13
2022-12-22T23:00:09.952Z,98091.66
2022-12-22T23:05:01.946Z,98098.44
2022-12-22T23:09:53.726Z,98106.75
2022-12-22T23:14:45.355Z,98102.44
2022-12-22T23:19:37.076Z,98106.75
2022-12-22T23:24:28.910Z,98105.16
2022-12-22T23:29:20.710Z,98120.94
2022-12-22T23:34:12.853Z,98109.00
2022-12-22T23:39:04.751Z,98119.41
2022-12-22T23:43:56.569Z,98125.03
2022-12-22T23:48:56.987Z,98118.28
2022-12-22T23:53:48.803Z,98123.91
2022-12-22T23:58:40.678Z,98125.28
